sensor_id;sensor_type;location;lat;lon;timestamp;P1;durP1;ratioP1;P2;durP2;ratioP2
20705;SDS011;10514;49.468;11.044;2022-09-09T00:00:59;3.63;;;1.60;;
20705;SDS011;10514;49.468;11.044;2022-09-09T00:03:34;3.85;;;1.50;;
20705;SDS011;10514;49.468;11.044;2022-09-09T00:06:11;2.05;;;1.10;;
20705;SDS011;10514;49.468;11.044;2022-09-09T00:11:21;1.88;;;1.10;;
20705;SDS011;10514;49.468;11.044;2022-09-09T00:13:51;1.95;;;1.35;;
20705;SDS011;10514;49.468;11.044;2022-09-09T00:16:22;3.35;;;1.70;;
20705;SDS011;10514;49.468;11.044;2022-09-09T00:18:57;2.85;;;1.70;;
20705;SDS011;10514;49.468;11.044;2022-09-09T00:21:38;2.92;;;1.65;;
20705;SDS011;10514;49.468;11.044;2022-09-09T00:26:54;3.88;;;1.40;;
20705;SDS011;10514;49.468;11.044;2022-09-09T00:29:28;2.13;;;1.02;;
20705;SDS011;10514;49.468;11.044;2022-09-09T00:32:00;4.32;;;1.58;;
20705;SDS011;10514;49.468;11.044;2022-09-09T00:34:36;3.70;;;1.55;;
20705;SDS011;10514;49.468;11.044;2022-09-09T00:37:04;2.53;;;1.30;;
20705;SDS011;10514;49.468;11.044;2022-09-09T00:39:32;2.75;;;1.20;;
20705;SDS011;10514;49.468;11.044;2022-09-09T00:42:18;4.45;;;1.45;;
20705;SDS011;10514;49.468;11.044;2022-09-09T00:45:19;2.95;;;1.50;;
20705;SDS011;10514;49.468;11.044;2022-09-09T00:47:52;3.40;;;1.10;;
20705;SDS011;10514;49.468;11.044;2022-09-09T00:57:59;1.88;;;1.20;;
20705;SDS011;10514;49.468;11.044;2022-09-09T01:00:29;3.17;;;1.40;;
20705;SDS011;10514;49.468;11.044;2022-09-09T01:03:07;2.67;;;1.38;;
20705;SDS011;10514;49.468;11.044;2022-09-09T01:05:39;2.08;;;1.30;;
20705;SDS011;10514;49.468;11.044;2022-09-09T01:11:07;2.22;;;1.35;;
20705;SDS011;10514;49.468;11.044;2022-09-09T01:13:40;1.70;;;1.27;;
20705;SDS011;10514;49.468;11.044;2022-09-09T01:16:08;3.00;;;1.15;;
20705;SDS011;10514;49.468;11.044;2022-09-09T01:18:46;1.63;;;1.08;;
20705;SDS011;10514;49.468;11.044;2022-09-09T01:27:03;4.55;;;1.15;;
20705;SDS011;10514;49.468;11.044;2022-09-09T01:29:31;5.28;;;1.50;;
20705;SDS011;10514;49.468;11.044;2022-09-09T01:31:58;2.15;;;1.10;;
20705;SDS011;10514;49.468;11.044;2022-09-09T01:34:26;4.03;;;1.10;;
20705;SDS011;10514;49.468;11.044;2022-09-09T01:36:57;2.92;;;1.50;;
20705;SDS011;10514;49.468;11.044;2022-09-09T01:39:23;1.98;;;1.17;;
20705;SDS011;10514;49.468;11.044;2022-09-09T01:41:49;1.77;;;1.27;;
20705;SDS011;10514;49.468;11.044;2022-09-09T01:44:15;2.17;;;0.93;;
20705;SDS011;10514;49.468;11.044;2022-09-09T01:46:43;1.23;;;1.00;;
20705;SDS011;10514;49.468;11.044;2022-09-09T01:49:09;1.90;;;1.00;;
20705;SDS011;10514;49.468;11.044;2022-09-09T01:51:36;3.45;;;1.40;;
20705;SDS011;10514;49.468;11.044;2022-09-09T01:54:02;3.92;;;1.13;;
20705;SDS011;10514;49.468;11.044;2022-09-09T01:59:24;4.28;;;1.58;;
20705;SDS011;10514;49.468;11.044;2022-09-09T02:02:11;3.53;;;1.65;;
20705;SDS011;10514;49.468;11.044;2022-09-09T02:05:02;4.28;;;1.33;;
20705;SDS011;10514;49.468;11.044;2022-09-09T02:07:43;2.42;;;1.30;;
20705;SDS011;10514;49.468;11.044;2022-09-09T02:12:39;3.17;;;1.08;;
20705;SDS011;10514;49.468;11.044;2022-09-09T02:15:11;3.85;;;1.30;;
20705;SDS011;10514;49.468;11.044;2022-09-09T02:17:46;2.45;;;1.08;;
20705;SDS011;10514;49.468;11.044;2022-09-09T02:20:14;3.70;;;1.02;;
20705;SDS011;10514;49.468;11.044;2022-09-09T02:22:41;3.10;;;1.33;;
20705;SDS011;10514;49.468;11.044;2022-09-09T02:25:11;3.60;;;1.15;;
20705;SDS011;10514;49.468;11.044;2022-09-09T02:27:37;2.17;;;1.20;;
20705;SDS011;10514;49.468;11.044;2022-09-09T02:30:04;2.63;;;1.40;;
20705;SDS011;10514;49.468;11.044;2022-09-09T02:32:30;1.90;;;1.23;;
20705;SDS011;10514;49.468;11.044;2022-09-09T02:35:04;3.80;;;1.63;;
20705;SDS011;10514;49.468;11.044;2022-09-09T02:37:32;2.17;;;1.15;;
20705;SDS011;10514;49.468;11.044;2022-09-09T02:40:00;2.80;;;1.35;;
20705;SDS011;10514;49.468;11.044;2022-09-09T02:42:27;6.10;;;1.33;;
20705;SDS011;10514;49.468;11.044;2022-09-09T02:44:53;3.05;;;1.55;;
20705;SDS011;10514;49.468;11.044;2022-09-09T02:55:05;1.63;;;1.05;;
20705;SDS011;10514;49.468;11.044;2022-09-09T02:57:37;2.47;;;1.50;;
20705;SDS011;10514;49.468;11.044;2022-09-09T03:00:03;3.20;;;1.88;;
20705;SDS011;10514;49.468;11.044;2022-09-09T03:02:30;3.38;;;1.80;;
20705;SDS011;10514;49.468;11.044;2022-09-09T03:04:56;2.92;;;1.90;;
20705;SDS011;10514;49.468;11.044;2022-09-09T03:07:22;4.18;;;2.20;;
20705;SDS011;10514;49.468;11.044;2022-09-09T03:09:48;5.50;;;2.45;;
20705;SDS011;10514;49.468;11.044;2022-09-09T03:12:14;5.70;;;2.28;;
20705;SDS011;10514;49.468;11.044;2022-09-09T03:14:41;4.35;;;2.33;;
20705;SDS011;10514;49.468;11.044;2022-09-09T03:17:08;5.75;;;2.10;;
20705;SDS011;10514;49.468;11.044;2022-09-09T03:19:34;5.93;;;2.47;;
20705;SDS011;10514;49.468;11.044;2022-09-09T03:22:01;4.32;;;2.83;;
20705;SDS011;10514;49.468;11.044;2022-09-09T03:24:29;3.38;;;2.33;;
20705;SDS011;10514;49.468;11.044;2022-09-09T03:26:55;4.43;;;1.83;;
20705;SDS011;10514;49.468;11.044;2022-09-09T03:29:21;6.00;;;1.80;;
20705;SDS011;10514;49.468;11.044;2022-09-09T03:31:47;3.40;;;1.85;;
20705;SDS011;10514;49.468;11.044;2022-09-09T03:34:12;3.47;;;1.35;;
20705;SDS011;10514;49.468;11.044;2022-09-09T03:36:41;3.63;;;1.30;;
20705;SDS011;10514;49.468;11.044;2022-09-09T03:39:07;4.15;;;1.15;;
20705;SDS011;10514;49.468;11.044;2022-09-09T03:41:33;3.13;;;1.20;;
20705;SDS011;10514;49.468;11.044;2022-09-09T03:43:59;2.28;;;1.25;;
20705;SDS011;10514;49.468;11.044;2022-09-09T03:46:25;3.03;;;1.23;;
20705;SDS011;10514;49.468;11.044;2022-09-09T03:48:51;5.10;;;1.40;;
20705;SDS011;10514;49.468;11.044;2022-09-09T03:51:17;3.25;;;1.45;;
20705;SDS011;10514;49.468;11.044;2022-09-09T03:53:43;3.10;;;1.33;;
20705;SDS011;10514;49.468;11.044;2022-09-09T03:56:09;4.10;;;1.58;;
20705;SDS011;10514;49.468;11.044;2022-09-09T03:58:35;2.63;;;1.58;;
20705;SDS011;10514;49.468;11.044;2022-09-09T04:01:05;3.70;;;1.50;;
20705;SDS011;10514;49.468;11.044;2022-09-09T04:03:35;3.53;;;1.60;;
20705;SDS011;10514;49.468;11.044;2022-09-09T04:06:04;3.83;;;1.58;;
20705;SDS011;10514;49.468;11.044;2022-09-09T04:08:32;4.95;;;1.73;;
20705;SDS011;10514;49.468;11.044;2022-09-09T04:10:58;2.60;;;1.60;;
20705;SDS011;10514;49.468;11.044;2022-09-09T04:13:26;3.33;;;1.60;;
20705;SDS011;10514;49.468;11.044;2022-09-09T04:15:56;4.22;;;1.90;;
20705;SDS011;10514;49.468;11.044;2022-09-09T04:18:22;4.15;;;1.80;;
20705;SDS011;10514;49.468;11.044;2022-09-09T04:20:49;3.17;;;1.67;;
20705;SDS011;10514;49.468;11.044;2022-09-09T04:23:15;5.10;;;1.92;;
20705;SDS011;10514;49.468;11.044;2022-09-09T04:25:47;5.85;;;1.52;;
20705;SDS011;10514;49.468;11.044;2022-09-09T04:28:13;2.92;;;2.17;;
20705;SDS011;10514;49.468;11.044;2022-09-09T04:30:40;4.40;;;2.20;;
20705;SDS011;10514;49.468;11.044;2022-09-09T04:33:06;3.55;;;1.63;;
20705;SDS011;10514;49.468;11.044;2022-09-09T04:35:32;4.30;;;1.50;;
20705;SDS011;10514;49.468;11.044;2022-09-09T04:37:58;6.57;;;1.92;;
20705;SDS011;10514;49.468;11.044;2022-09-09T04:40:24;3.42;;;2.13;;
20705;SDS011;10514;49.468;11.044;2022-09-09T04:42:50;6.95;;;2.78;;
20705;SDS011;10514;49.468;11.044;2022-09-09T04:45:16;4.05;;;2.33;;
20705;SDS011;10514;49.468;11.044;2022-09-09T04:47:43;3.63;;;2.17;;
20705;SDS011;10514;49.468;11.044;2022-09-09T04:50:09;3.42;;;1.98;;
20705;SDS011;10514;49.468;11.044;2022-09-09T04:52:35;3.65;;;1.75;;
20705;SDS011;10514;49.468;11.044;2022-09-09T04:55:01;4.57;;;1.80;;
20705;SDS011;10514;49.468;11.044;2022-09-09T04:57:26;5.50;;;2.20;;
20705;SDS011;10514;49.468;11.044;2022-09-09T04:59:53;3.38;;;1.70;;
20705;SDS011;10514;49.468;11.044;2022-09-09T05:02:19;2.83;;;1.73;;
20705;SDS011;10514;49.468;11.044;2022-09-09T05:04:45;2.28;;;1.42;;
20705;SDS011;10514;49.468;11.044;2022-09-09T05:07:11;6.28;;;1.60;;
20705;SDS011;10514;49.468;11.044;2022-09-09T05:09:38;8.77;;;2.15;;
20705;SDS011;10514;49.468;11.044;2022-09-09T05:12:04;3.83;;;2.40;;
20705;SDS011;10514;49.468;11.044;2022-09-09T05:14:30;3.78;;;2.13;;
20705;SDS011;10514;49.468;11.044;2022-09-09T05:16:56;3.45;;;2.20;;
20705;SDS011;10514;49.468;11.044;2022-09-09T05:19:22;6.05;;;2.60;;
20705;SDS011;10514;49.468;11.044;2022-09-09T05:21:49;5.68;;;2.55;;
20705;SDS011;10514;49.468;11.044;2022-09-09T05:24:15;3.75;;;2.97;;
20705;SDS011;10514;49.468;11.044;2022-09-09T05:26:42;3.10;;;2.10;;
20705;SDS011;10514;49.468;11.044;2022-09-09T05:29:09;4.53;;;1.55;;
20705;SDS011;10514;49.468;11.044;2022-09-09T05:31:35;3.65;;;1.80;;
20705;SDS011;10514;49.468;11.044;2022-09-09T05:34:00;6.00;;;1.73;;
20705;SDS011;10514;49.468;11.044;2022-09-09T05:36:26;5.68;;;1.88;;
20705;SDS011;10514;49.468;11.044;2022-09-09T05:38:52;4.55;;;1.98;;
20705;SDS011;10514;49.468;11.044;2022-09-09T05:41:21;6.13;;;1.27;;
20705;SDS011;10514;49.468;11.044;2022-09-09T05:43:48;4.07;;;1.40;;
20705;SDS011;10514;49.468;11.044;2022-09-09T05:46:15;5.20;;;1.60;;
20705;SDS011;10514;49.468;11.044;2022-09-09T05:48:42;4.90;;;1.90;;
20705;SDS011;10514;49.468;11.044;2022-09-09T05:51:09;3.38;;;1.48;;
20705;SDS011;10514;49.468;11.044;2022-09-09T05:53:37;5.18;;;1.65;;
20705;SDS011;10514;49.468;11.044;2022-09-09T05:56:04;5.03;;;1.38;;
20705;SDS011;10514;49.468;11.044;2022-09-09T05:58:31;4.13;;;1.48;;
20705;SDS011;10514;49.468;11.044;2022-09-09T06:01:07;3.15;;;1.23;;
20705;SDS011;10514;49.468;11.044;2022-09-09T06:03:35;2.58;;;1.08;;
20705;SDS011;10514;49.468;11.044;2022-09-09T06:06:03;5.00;;;1.20;;
20705;SDS011;10514;49.468;11.044;2022-09-09T06:08:30;2.38;;;1.23;;
20705;SDS011;10514;49.468;11.044;2022-09-09T06:11:03;2.97;;;1.60;;
20705;SDS011;10514;49.468;11.044;2022-09-09T06:13:29;4.45;;;1.42;;
20705;SDS011;10514;49.468;11.044;2022-09-09T06:15:55;4.28;;;1.45;;
20705;SDS011;10514;49.468;11.044;2022-09-09T06:18:21;5.47;;;1.45;;
20705;SDS011;10514;49.468;11.044;2022-09-09T06:20:57;3.78;;;1.50;;
20705;SDS011;10514;49.468;11.044;2022-09-09T06:23:24;10.35;;;2.03;;
20705;SDS011;10514;49.468;11.044;2022-09-09T06:25:50;5.47;;;1.17;;
20705;SDS011;10514;49.468;11.044;2022-09-09T06:28:17;2.22;;;1.30;;
20705;SDS011;10514;49.468;11.044;2022-09-09T06:30:43;3.40;;;1.40;;
20705;SDS011;10514;49.468;11.044;2022-09-09T06:33:09;2.10;;;1.40;;
20705;SDS011;10514;49.468;11.044;2022-09-09T06:35:35;1.42;;;1.15;;
20705;SDS011;10514;49.468;11.044;2022-09-09T06:38:02;2.10;;;1.20;;
20705;SDS011;10514;49.468;11.044;2022-09-09T06:40:28;2.50;;;1.45;;
20705;SDS011;10514;49.468;11.044;2022-09-09T06:42:58;3.75;;;1.60;;
20705;SDS011;10514;49.468;11.044;2022-09-09T06:45:24;6.68;;;2.10;;
20705;SDS011;10514;49.468;11.044;2022-09-09T06:47:50;1.60;;;1.23;;
20705;SDS011;10514;49.468;11.044;2022-09-09T06:50:17;3.90;;;1.50;;
20705;SDS011;10514;49.468;11.044;2022-09-09T06:52:45;7.07;;;1.52;;
20705;SDS011;10514;49.468;11.044;2022-09-09T06:55:12;6.35;;;1.80;;
20705;SDS011;10514;49.468;11.044;2022-09-09T06:57:40;4.03;;;1.83;;
20705;SDS011;10514;49.468;11.044;2022-09-09T07:00:06;4.43;;;1.42;;
20705;SDS011;10514;49.468;11.044;2022-09-09T07:02:33;4.65;;;1.33;;
20705;SDS011;10514;49.468;11.044;2022-09-09T07:05:03;5.32;;;1.60;;
20705;SDS011;10514;49.468;11.044;2022-09-09T07:07:29;13.30;;;1.85;;
20705;SDS011;10514;49.468;11.044;2022-09-09T07:09:56;5.53;;;1.65;;
20705;SDS011;10514;49.468;11.044;2022-09-09T07:12:22;7.57;;;1.52;;
20705;SDS011;10514;49.468;11.044;2022-09-09T07:14:48;5.00;;;1.70;;
20705;SDS011;10514;49.468;11.044;2022-09-09T07:17:13;5.93;;;1.50;;
20705;SDS011;10514;49.468;11.044;2022-09-09T07:19:39;8.05;;;1.42;;
20705;SDS011;10514;49.468;11.044;2022-09-09T07:22:05;3.35;;;1.25;;
20705;SDS011;10514;49.468;11.044;2022-09-09T07:24:31;4.30;;;1.25;;
20705;SDS011;10514;49.468;11.044;2022-09-09T07:26:57;7.80;;;2.65;;
20705;SDS011;10514;49.468;11.044;2022-09-09T07:29:24;3.45;;;1.33;;
20705;SDS011;10514;49.468;11.044;2022-09-09T07:31:50;4.22;;;1.33;;
20705;SDS011;10514;49.468;11.044;2022-09-09T07:34:16;6.15;;;1.35;;
20705;SDS011;10514;49.468;11.044;2022-09-09T07:36:43;3.92;;;1.52;;
20705;SDS011;10514;49.468;11.044;2022-09-09T07:39:10;3.40;;;1.35;;
20705;SDS011;10514;49.468;11.044;2022-09-09T07:41:43;6.03;;;1.35;;
20705;SDS011;10514;49.468;11.044;2022-09-09T07:44:16;2.25;;;1.08;;
20705;SDS011;10514;49.468;11.044;2022-09-09T07:46:42;4.53;;;1.58;;
20705;SDS011;10514;49.468;11.044;2022-09-09T07:49:10;2.95;;;1.13;;
20705;SDS011;10514;49.468;11.044;2022-09-09T07:51:37;3.60;;;1.30;;
20705;SDS011;10514;49.468;11.044;2022-09-09T07:54:07;4.40;;;1.00;;
20705;SDS011;10514;49.468;11.044;2022-09-09T07:56:34;2.05;;;1.27;;
20705;SDS011;10514;49.468;11.044;2022-09-09T07:59:00;2.70;;;1.10;;
20705;SDS011;10514;49.468;11.044;2022-09-09T08:01:27;3.15;;;1.00;;
20705;SDS011;10514;49.468;11.044;2022-09-09T08:06:21;2.35;;;1.27;;
20705;SDS011;10514;49.468;11.044;2022-09-09T08:08:49;3.35;;;1.30;;
20705;SDS011;10514;49.468;11.044;2022-09-09T08:11:15;1.58;;;0.88;;
20705;SDS011;10514;49.468;11.044;2022-09-09T08:13:41;4.50;;;1.20;;
20705;SDS011;10514;49.468;11.044;2022-09-09T08:16:09;7.38;;;1.98;;
20705;SDS011;10514;49.468;11.044;2022-09-09T08:18:38;6.22;;;1.20;;
20705;SDS011;10514;49.468;11.044;2022-09-09T08:21:05;3.67;;;1.10;;
20705;SDS011;10514;49.468;11.044;2022-09-09T08:23:42;3.63;;;1.42;;
20705;SDS011;10514;49.468;11.044;2022-09-09T08:26:13;4.65;;;1.00;;
20705;SDS011;10514;49.468;11.044;2022-09-09T08:28:46;4.43;;;1.00;;
20705;SDS011;10514;49.468;11.044;2022-09-09T08:31:15;4.90;;;1.00;;
20705;SDS011;10514;49.468;11.044;2022-09-09T08:33:42;5.70;;;1.48;;
20705;SDS011;10514;49.468;11.044;2022-09-09T08:36:11;2.60;;;0.80;;
20705;SDS011;10514;49.468;11.044;2022-09-09T08:38:40;4.03;;;0.88;;
20705;SDS011;10514;49.468;11.044;2022-09-09T08:44:04;3.97;;;0.98;;
20705;SDS011;10514;49.468;11.044;2022-09-09T08:46:39;3.35;;;0.73;;
20705;SDS011;10514;49.468;11.044;2022-09-09T08:52:19;3.55;;;0.80;;
20705;SDS011;10514;49.468;11.044;2022-09-09T08:54:50;1.98;;;0.80;;
20705;SDS011;10514;49.468;11.044;2022-09-09T08:57:19;4.68;;;0.90;;
20705;SDS011;10514;49.468;11.044;2022-09-09T08:59:50;1.73;;;0.70;;
20705;SDS011;10514;49.468;11.044;2022-09-09T09:02:17;2.17;;;0.65;;
20705;SDS011;10514;49.468;11.044;2022-09-09T09:05:05;1.92;;;0.82;;
20705;SDS011;10514;49.468;11.044;2022-09-09T09:10:47;2.58;;;0.77;;
20705;SDS011;10514;49.468;11.044;2022-09-09T09:13:24;3.08;;;0.60;;
20705;SDS011;10514;49.468;11.044;2022-09-09T09:16:10;2.28;;;0.77;;
20705;SDS011;10514;49.468;11.044;2022-09-09T09:18:44;2.55;;;0.60;;
20705;SDS011;10514;49.468;11.044;2022-09-09T09:21:12;3.85;;;0.70;;
20705;SDS011;10514;49.468;11.044;2022-09-09T09:23:45;1.85;;;0.60;;
20705;SDS011;10514;49.468;11.044;2022-09-09T09:26:18;1.65;;;0.63;;
20705;SDS011;10514;49.468;11.044;2022-09-09T09:28:47;1.55;;;0.60;;
20705;SDS011;10514;49.468;11.044;2022-09-09T09:31:13;2.70;;;0.70;;
20705;SDS011;10514;49.468;11.044;2022-09-09T09:33:45;2.00;;;0.70;;
20705;SDS011;10514;49.468;11.044;2022-09-09T09:36:16;2.35;;;0.70;;
20705;SDS011;10514;49.468;11.044;2022-09-09T09:38:57;2.65;;;0.80;;
20705;SDS011;10514;49.468;11.044;2022-09-09T09:41:32;2.20;;;0.65;;
20705;SDS011;10514;49.468;11.044;2022-09-09T09:43:57;3.22;;;0.73;;
20705;SDS011;10514;49.468;11.044;2022-09-09T09:46:25;2.83;;;0.77;;
20705;SDS011;10514;49.468;11.044;2022-09-09T09:48:58;0.95;;;0.60;;
20705;SDS011;10514;49.468;11.044;2022-09-09T09:51:25;0.95;;;0.60;;
20705;SDS011;10514;49.468;11.044;2022-09-09T09:53:52;1.70;;;0.70;;
20705;SDS011;10514;49.468;11.044;2022-09-09T09:56:25;3.35;;;0.68;;
20705;SDS011;10514;49.468;11.044;2022-09-09T09:58:54;3.13;;;0.60;;
20705;SDS011;10514;49.468;11.044;2022-09-09T10:03:52;1.40;;;0.60;;
20705;SDS011;10514;49.468;11.044;2022-09-09T10:06:35;1.63;;;0.75;;
20705;SDS011;10514;49.468;11.044;2022-09-09T10:09:03;2.88;;;0.80;;
20705;SDS011;10514;49.468;11.044;2022-09-09T10:11:56;2.17;;;0.82;;
20705;SDS011;10514;49.468;11.044;2022-09-09T10:18:21;2.17;;;0.60;;
20705;SDS011;10514;49.468;11.044;2022-09-09T10:26:32;1.52;;;0.88;;
20705;SDS011;10514;49.468;11.044;2022-09-09T10:36:52;2.63;;;0.70;;
20705;SDS011;10514;49.468;11.044;2022-09-09T10:42:15;3.42;;;0.80;;
20705;SDS011;10514;49.468;11.044;2022-09-09T10:44:54;2.55;;;0.70;;
20705;SDS011;10514;49.468;11.044;2022-09-09T10:52:49;5.00;;;0.82;;
20705;SDS011;10514;49.468;11.044;2022-09-09T10:55:20;5.45;;;1.10;;
20705;SDS011;10514;49.468;11.044;2022-09-09T10:57:52;2.30;;;0.60;;
20705;SDS011;10514;49.468;11.044;2022-09-09T11:02:55;2.38;;;0.70;;
20705;SDS011;10514;49.468;11.044;2022-09-09T11:08:11;2.15;;;0.63;;
20705;SDS011;10514;49.468;11.044;2022-09-09T11:13:17;1.05;;;0.60;;
20705;SDS011;10514;49.468;11.044;2022-09-09T11:15:49;2.72;;;0.90;;
20705;SDS011;10514;49.468;11.044;2022-09-09T11:18:21;2.05;;;0.63;;
20705;SDS011;10514;49.468;11.044;2022-09-09T11:20:49;4.85;;;0.85;;
20705;SDS011;10514;49.468;11.044;2022-09-09T11:23:25;2.38;;;0.57;;
20705;SDS011;10514;49.468;11.044;2022-09-09T11:25:56;2.97;;;0.70;;
20705;SDS011;10514;49.468;11.044;2022-09-09T11:31:03;1.83;;;0.65;;
20705;SDS011;10514;49.468;11.044;2022-09-09T11:38:47;2.65;;;0.70;;
20705;SDS011;10514;49.468;11.044;2022-09-09T11:41:19;4.63;;;0.85;;
20705;SDS011;10514;49.468;11.044;2022-09-09T11:43:49;2.33;;;0.70;;
20705;SDS011;10514;49.468;11.044;2022-09-09T11:46:17;2.25;;;0.55;;
20705;SDS011;10514;49.468;11.044;2022-09-09T11:48:45;3.13;;;0.57;;
20705;SDS011;10514;49.468;11.044;2022-09-09T11:53:53;2.17;;;0.55;;
20705;SDS011;10514;49.468;11.044;2022-09-09T11:56:27;1.60;;;0.60;;
20705;SDS011;10514;49.468;11.044;2022-09-09T11:58:56;2.08;;;0.80;;
20705;SDS011;10514;49.468;11.044;2022-09-09T12:06:29;2.55;;;0.70;;
20705;SDS011;10514;49.468;11.044;2022-09-09T12:09:06;1.65;;;0.50;;
20705;SDS011;10514;49.468;11.044;2022-09-09T12:11:33;2.33;;;0.60;;
20705;SDS011;10514;49.468;11.044;2022-09-09T12:13:59;5.15;;;0.80;;
20705;SDS011;10514;49.468;11.044;2022-09-09T12:19:14;1.05;;;0.47;;
20705;SDS011;10514;49.468;11.044;2022-09-09T12:21:46;1.38;;;0.57;;
20705;SDS011;10514;49.468;11.044;2022-09-09T12:24:23;1.63;;;0.68;;
20705;SDS011;10514;49.468;11.044;2022-09-09T12:27:08;2.08;;;0.55;;
20705;SDS011;10514;49.468;11.044;2022-09-09T12:29:55;1.98;;;0.47;;
20705;SDS011;10514;49.468;11.044;2022-09-09T12:32:23;1.85;;;0.60;;
20705;SDS011;10514;49.468;11.044;2022-09-09T12:34:58;1.60;;;0.50;;
20705;SDS011;10514;49.468;11.044;2022-09-09T12:40:00;3.92;;;0.60;;
20705;SDS011;10514;49.468;11.044;2022-09-09T12:42:28;0.90;;;0.50;;
20705;SDS011;10514;49.468;11.044;2022-09-09T12:44:55;0.77;;;0.20;;
20705;SDS011;10514;49.468;11.044;2022-09-09T12:47:22;1.23;;;0.50;;
20705;SDS011;10514;49.468;11.044;2022-09-09T12:49:50;3.17;;;0.80;;
20705;SDS011;10514;49.468;11.044;2022-09-09T12:52:23;2.78;;;0.50;;
20705;SDS011;10514;49.468;11.044;2022-09-09T12:54:52;1.80;;;0.75;;
20705;SDS011;10514;49.468;11.044;2022-09-09T12:57:18;7.63;;;0.70;;
20705;SDS011;10514;49.468;11.044;2022-09-09T12:59:46;2.30;;;0.80;;
20705;SDS011;10514;49.468;11.044;2022-09-09T13:02:17;1.02;;;0.70;;
20705;SDS011;10514;49.468;11.044;2022-09-09T13:04:44;6.03;;;0.73;;
20705;SDS011;10514;49.468;11.044;2022-09-09T13:07:11;2.15;;;0.60;;
20705;SDS011;10514;49.468;11.044;2022-09-09T13:09:38;1.10;;;0.60;;
20705;SDS011;10514;49.468;11.044;2022-09-09T13:12:04;2.63;;;0.68;;
20705;SDS011;10514;49.468;11.044;2022-09-09T13:14:32;1.92;;;0.50;;
20705;SDS011;10514;49.468;11.044;2022-09-09T13:17:05;3.72;;;0.45;;
20705;SDS011;10514;49.468;11.044;2022-09-09T13:19:33;1.95;;;0.68;;
20705;SDS011;10514;49.468;11.044;2022-09-09T13:22:11;2.15;;;0.55;;
20705;SDS011;10514;49.468;11.044;2022-09-09T13:24:38;4.28;;;0.60;;
20705;SDS011;10514;49.468;11.044;2022-09-09T13:27:05;1.30;;;0.60;;
20705;SDS011;10514;49.468;11.044;2022-09-09T13:29:51;3.20;;;0.80;;
20705;SDS011;10514;49.468;11.044;2022-09-09T13:32:21;2.13;;;0.50;;
20705;SDS011;10514;49.468;11.044;2022-09-09T13:34:51;2.03;;;0.60;;
20705;SDS011;10514;49.468;11.044;2022-09-09T13:37:21;2.65;;;0.52;;
20705;SDS011;10514;49.468;11.044;2022-09-09T13:39:53;2.30;;;0.40;;
20705;SDS011;10514;49.468;11.044;2022-09-09T13:42:24;2.38;;;0.52;;
20705;SDS011;10514;49.468;11.044;2022-09-09T13:44:51;2.15;;;0.60;;
20705;SDS011;10514;49.468;11.044;2022-09-09T13:47:18;2.17;;;0.65;;
20705;SDS011;10514;49.468;11.044;2022-09-09T13:49:44;1.60;;;0.60;;
20705;SDS011;10514;49.468;11.044;2022-09-09T13:54:42;1.48;;;0.60;;
20705;SDS011;10514;49.468;11.044;2022-09-09T13:57:15;2.80;;;0.63;;
20705;SDS011;10514;49.468;11.044;2022-09-09T13:59:46;0.85;;;0.52;;
20705;SDS011;10514;49.468;11.044;2022-09-09T14:02:12;0.57;;;0.30;;
20705;SDS011;10514;49.468;11.044;2022-09-09T14:04:38;0.75;;;0.50;;
20705;SDS011;10514;49.468;11.044;2022-09-09T14:07:08;2.08;;;0.75;;
20705;SDS011;10514;49.468;11.044;2022-09-09T14:09:34;2.13;;;0.55;;
20705;SDS011;10514;49.468;11.044;2022-09-09T14:12:01;3.25;;;0.68;;
20705;SDS011;10514;49.468;11.044;2022-09-09T14:14:30;3.38;;;0.70;;
20705;SDS011;10514;49.468;11.044;2022-09-09T14:16:55;9.77;;;4.60;;
20705;SDS011;10514;49.468;11.044;2022-09-09T14:19:21;5.68;;;1.90;;
20705;SDS011;10514;49.468;11.044;2022-09-09T14:21:47;4.88;;;1.00;;
20705;SDS011;10514;49.468;11.044;2022-09-09T14:24:13;4.53;;;0.57;;
20705;SDS011;10514;49.468;11.044;2022-09-09T14:26:39;2.88;;;0.77;;
20705;SDS011;10514;49.468;11.044;2022-09-09T14:29:05;2.15;;;0.80;;
20705;SDS011;10514;49.468;11.044;2022-09-09T14:31:32;3.13;;;0.93;;
20705;SDS011;10514;49.468;11.044;2022-09-09T14:33:57;2.85;;;0.60;;
20705;SDS011;10514;49.468;11.044;2022-09-09T14:36:24;8.73;;;3.05;;
20705;SDS011;10514;49.468;11.044;2022-09-09T14:38:50;4.88;;;1.83;;
20705;SDS011;10514;49.468;11.044;2022-09-09T14:41:18;3.60;;;1.40;;
20705;SDS011;10514;49.468;11.044;2022-09-09T14:43:44;2.40;;;0.85;;
20705;SDS011;10514;49.468;11.044;2022-09-09T14:46:15;4.55;;;1.02;;
20705;SDS011;10514;49.468;11.044;2022-09-09T14:48:42;4.60;;;0.90;;
20705;SDS011;10514;49.468;11.044;2022-09-09T14:51:09;3.40;;;0.77;;
20705;SDS011;10514;49.468;11.044;2022-09-09T14:53:37;1.50;;;0.65;;
20705;SDS011;10514;49.468;11.044;2022-09-09T14:56:10;10.68;;;1.20;;
20705;SDS011;10514;49.468;11.044;2022-09-09T14:58:37;5.95;;;0.85;;
20705;SDS011;10514;49.468;11.044;2022-09-09T15:01:13;0.63;;;0.40;;
20705;SDS011;10514;49.468;11.044;2022-09-09T15:03:41;4.05;;;0.70;;
20705;SDS011;10514;49.468;11.044;2022-09-09T15:06:12;2.47;;;0.65;;
20705;SDS011;10514;49.468;11.044;2022-09-09T15:08:40;3.90;;;0.50;;
20705;SDS011;10514;49.468;11.044;2022-09-09T15:11:07;2.90;;;0.50;;
20705;SDS011;10514;49.468;11.044;2022-09-09T15:13:33;2.70;;;0.40;;
20705;SDS011;10514;49.468;11.044;2022-09-09T15:16:06;6.03;;;0.82;;
20705;SDS011;10514;49.468;11.044;2022-09-09T15:18:33;1.40;;;0.57;;
20705;SDS011;10514;49.468;11.044;2022-09-09T15:21:01;1.75;;;0.60;;
20705;SDS011;10514;49.468;11.044;2022-09-09T15:23:28;3.13;;;0.80;;
20705;SDS011;10514;49.468;11.044;2022-09-09T15:25:54;1.90;;;0.90;;
20705;SDS011;10514;49.468;11.044;2022-09-09T15:28:21;4.05;;;0.70;;
20705;SDS011;10514;49.468;11.044;2022-09-09T15:30:48;1.83;;;0.60;;
20705;SDS011;10514;49.468;11.044;2022-09-09T15:33:14;3.15;;;0.70;;
20705;SDS011;10514;49.468;11.044;2022-09-09T15:35:40;1.90;;;0.60;;
20705;SDS011;10514;49.468;11.044;2022-09-09T15:38:06;3.97;;;0.60;;
20705;SDS011;10514;49.468;11.044;2022-09-09T15:40:32;8.23;;;0.63;;
20705;SDS011;10514;49.468;11.044;2022-09-09T15:42:58;1.20;;;0.60;;
20705;SDS011;10514;49.468;11.044;2022-09-09T15:45:24;2.35;;;0.70;;
20705;SDS011;10514;49.468;11.044;2022-09-09T15:47:51;2.42;;;0.70;;
20705;SDS011;10514;49.468;11.044;2022-09-09T15:50:17;1.83;;;0.60;;
20705;SDS011;10514;49.468;11.044;2022-09-09T15:52:43;5.07;;;0.82;;
20705;SDS011;10514;49.468;11.044;2022-09-09T15:55:09;3.60;;;0.60;;
20705;SDS011;10514;49.468;11.044;2022-09-09T15:57:35;3.13;;;0.70;;
20705;SDS011;10514;49.468;11.044;2022-09-09T16:00:01;3.83;;;0.60;;
20705;SDS011;10514;49.468;11.044;2022-09-09T16:02:28;1.38;;;0.40;;
20705;SDS011;10514;49.468;11.044;2022-09-09T16:04:55;1.42;;;0.40;;
20705;SDS011;10514;49.468;11.044;2022-09-09T16:07:22;2.08;;;0.45;;
20705;SDS011;10514;49.468;11.044;2022-09-09T16:09:48;2.40;;;0.47;;
20705;SDS011;10514;49.468;11.044;2022-09-09T16:12:16;2.85;;;0.60;;
20705;SDS011;10514;49.468;11.044;2022-09-09T16:14:42;0.60;;;0.40;;
20705;SDS011;10514;49.468;11.044;2022-09-09T16:17:07;0.85;;;0.40;;
20705;SDS011;10514;49.468;11.044;2022-09-09T16:19:33;1.25;;;0.32;;
20705;SDS011;10514;49.468;11.044;2022-09-09T16:21:59;1.38;;;0.40;;
20705;SDS011;10514;49.468;11.044;2022-09-09T16:24:25;1.08;;;0.30;;
20705;SDS011;10514;49.468;11.044;2022-09-09T16:26:52;0.60;;;0.20;;
20705;SDS011;10514;49.468;11.044;2022-09-09T16:29:19;0.95;;;0.30;;